createdAt,value
2018-06-02T00:00:06.820Z,46.07
2018-06-02T00:02:34.822Z,50.23
2018-06-02T00:05:02.396Z,50.63
2018-06-02T00:07:30.033Z,50.93
2018-06-02T00:09:57.621Z,52.17
2018-06-02T00:12:25.195Z,53.03
2018-06-02T00:14:52.804Z,52.83
2018-06-02T00:17:20.410Z,49.10
2018-06-02T00:19:48.635Z,49.93
2018-06-02T00:22:16.229Z,48.87
2018-06-02T00:24:43.826Z,49.23
2018-06-02T00:27:12.199Z,53.67
2018-06-02T00:29:39.792Z,54.43
2018-06-02T00:32:07.501Z,55.63
2018-06-02T00:34:35.095Z,49.03
2018-06-02T00:37:02.797Z,55.03
2018-06-02T00:39:30.409Z,54.50
2018-06-02T00:41:58.011Z,52.83
2018-06-02T00:44:25.655Z,53.00
2018-06-02T00:46:54.014Z,55.13
2018-06-02T00:49:21.601Z,54.87
2018-06-02T00:51:49.306Z,55.27
2018-06-02T00:54:16.897Z,56.27
2018-06-02T00:56:44.834Z,58.43
2018-06-02T00:59:12.518Z,58.00
2018-06-02T01:01:40.114Z,51.27
2018-06-02T01:04:08.496Z,53.50
2018-06-02T01:06:36.159Z,54.23
2018-06-02T01:09:04.506Z,53.23
2018-06-02T01:11:32.104Z,55.07
2018-06-02T01:13:59.702Z,52.83
2018-06-02T01:16:27.288Z,56.30
2018-06-02T01:18:55.581Z,55.47
2018-06-02T01:21:23.183Z,55.77
2018-06-02T01:23:50.773Z,56.47
2018-06-02T01:26:18.656Z,56.80
2018-06-02T01:28:46.312Z,62.13
2018-06-02T01:31:13.909Z,58.00
2018-06-02T01:33:41.558Z,61.60
2018-06-02T01:36:09.309Z,60.93
2018-06-02T01:38:36.910Z,52.20
2018-06-02T01:41:04.493Z,54.47
2018-06-02T01:43:32.122Z,56.87
2018-06-02T01:45:59.720Z,59.43
2018-06-02T01:48:27.539Z,60.47
2018-06-02T01:50:55.132Z,59.17
2018-06-02T01:53:22.749Z,58.13
2018-06-02T01:55:51.147Z,63.23
2018-06-02T01:58:18.769Z,68.40
2018-06-02T02:00:46.772Z,73.10
2018-06-02T02:03:15.147Z,77.67
2018-06-02T02:05:42.787Z,66.67
2018-06-02T02:08:10.394Z,60.60
2018-06-02T02:10:38.809Z,63.47
2018-06-02T02:13:06.410Z,62.43
2018-06-02T02:15:34.005Z,62.77
2018-06-02T02:18:01.746Z,61.97
2018-06-02T02:20:29.356Z,59.17
2018-06-02T02:22:57.006Z,64.20
2018-06-02T02:25:24.793Z,64.13
2018-06-02T02:27:52.659Z,66.00
2018-06-02T02:30:20.254Z,63.10
2018-06-02T02:32:47.867Z,60.37
2018-06-02T02:35:15.571Z,54.53
2018-06-02T02:37:43.185Z,52.53
2018-06-02T02:40:10.782Z,51.67
2018-06-02T02:42:38.372Z,52.80
2018-06-02T02:45:05.973Z,53.63
2018-06-02T02:47:34.525Z,57.20
2018-06-02T02:50:02.126Z,56.70
2018-06-02T02:52:29.958Z,57.57
2018-06-02T02:54:58.333Z,59.53
2018-06-02T02:57:25.928Z,59.53
2018-06-02T02:59:53.499Z,58.07
2018-06-02T03:02:21.107Z,61.50
2018-06-02T03:04:48.737Z,59.70
2018-06-02T03:07:16.360Z,60.03
2018-06-02T03:09:44.733Z,60.13
2018-06-02T03:12:13.125Z,61.80
2018-06-02T03:14:41.493Z,63.23
2018-06-02T03:17:09.986Z,65.80
2018-06-02T03:19:38.399Z,63.60
2018-06-02T03:22:06.025Z,63.80
2018-06-02T03:24:34.411Z,60.47
2018-06-02T03:27:02.819Z,58.67
2018-06-02T03:29:30.502Z,59.20
2018-06-02T03:31:58.120Z,57.70
2018-06-02T03:34:25.982Z,59.60
2018-06-02T03:36:53.749Z,55.30
2018-06-02T03:39:22.983Z,55.93
2018-06-02T03:41:50.688Z,54.47
2018-06-02T03:44:18.430Z,52.00
2018-06-02T03:46:46.029Z,51.90
2018-06-02T03:49:13.778Z,51.37
2018-06-02T03:51:41.364Z,52.70
2018-06-02T03:54:09.776Z,53.50
2018-06-02T03:56:37.355Z,52.13
2018-06-02T03:59:05.090Z,55.40
2018-06-02T04:01:32.707Z,56.13
2018-06-02T04:04:00.384Z,52.27
2018-06-02T04:06:28.073Z,45.57
2018-06-02T04:08:55.727Z,45.70
2018-06-02T04:11:24.139Z,46.17
2018-06-02T04:13:51.774Z,44.23
2018-06-02T04:16:20.017Z,45.97
2018-06-02T04:18:47.808Z,48.53
2018-06-02T04:21:15.420Z,48.20
2018-06-02T04:23:43.009Z,47.83
2018-06-02T04:26:10.739Z,48.90
2018-06-02T04:28:38.319Z,50.70
2018-06-02T04:31:05.937Z,48.50
2018-06-02T04:33:33.520Z,48.77
2018-06-02T04:36:01.092Z,51.30
2018-06-02T04:38:38.664Z,50.93
2018-06-02T04:41:06.275Z,49.23
2018-06-02T04:43:33.876Z,51.13
2018-06-02T04:46:01.469Z,46.00
2018-06-02T04:48:29.076Z,41.67
2018-06-02T04:50:56.700Z,39.37
2018-06-02T04:53:24.438Z,37.53
2018-06-02T04:55:52.029Z,36.40
2018-06-02T04:58:19.625Z,35.80
2018-06-02T05:00:47.977Z,34.43
2018-06-02T05:03:15.545Z,34.70
2018-06-02T05:05:43.138Z,36.83
2018-06-02T05:08:14.653Z,36.33
2018-06-02T05:10:42.277Z,37.40
2018-06-02T05:13:09.886Z,35.73
2018-06-02T05:15:37.482Z,37.30
2018-06-02T05:18:05.055Z,37.70
2018-06-02T05:20:32.663Z,40.23
2018-06-02T05:23:00.264Z,40.93
2018-06-02T05:25:27.862Z,38.90
2018-06-02T05:27:55.522Z,40.30
2018-06-02T05:30:23.130Z,41.63
2018-06-02T05:32:50.739Z,41.63
2018-06-02T05:35:18.345Z,40.67
2018-06-02T05:37:45.949Z,44.23
2018-06-02T05:40:13.533Z,44.13
2018-06-02T05:42:41.116Z,44.50
2018-06-02T05:45:08.709Z,42.23
2018-06-02T05:47:37.068Z,42.97
2018-06-02T05:50:04.652Z,46.57
2018-06-02T05:52:32.250Z,46.33
2018-06-02T05:54:59.840Z,46.53
2018-06-02T05:57:27.512Z,46.00
2018-06-02T05:59:55.921Z,43.00
2018-06-02T06:02:23.488Z,44.80
2018-06-02T06:04:51.080Z,45.07
2018-06-02T06:07:18.655Z,45.53
2018-06-02T06:09:46.247Z,44.27
2018-06-02T06:12:13.838Z,44.53
2018-06-02T06:14:41.562Z,42.07
2018-06-02T06:17:09.133Z,41.23
2018-06-02T06:19:36.770Z,41.47
2018-06-02T06:22:04.317Z,41.87
2018-06-02T06:24:31.900Z,40.97
2018-06-02T06:26:59.500Z,40.67
2018-06-02T06:29:27.230Z,42.37
2018-06-02T06:31:54.834Z,40.33
2018-06-02T06:34:22.448Z,41.57
2018-06-02T06:36:50.113Z,40.03
2018-06-02T06:39:17.683Z,40.50
2018-06-02T06:41:45.272Z,37.93
2018-06-02T06:44:13.624Z,36.13
2018-06-02T06:46:41.222Z,35.73
2018-06-02T06:49:08.804Z,35.23
2018-06-02T06:51:36.401Z,32.37
2018-06-02T06:54:04.039Z,29.93
2018-06-02T06:56:31.627Z,31.63
2018-06-02T06:59:02.570Z,31.93
2018-06-02T07:01:30.160Z,30.83
2018-06-02T07:03:57.749Z,29.47
2018-06-02T07:06:25.374Z,29.93
2018-06-02T07:08:53.014Z,30.77
2018-06-02T07:11:20.585Z,30.40
2018-06-02T07:13:48.208Z,29.00
2018-06-02T07:16:16.547Z,29.43
2018-06-02T07:18:44.904Z,29.73
2018-06-02T07:21:12.501Z,28.73
2018-06-02T07:23:40.390Z,26.93
2018-06-02T07:26:08.018Z,27.00
2018-06-02T07:28:40.337Z,27.53
2018-06-02T07:31:07.986Z,29.00
2018-06-02T07:33:35.580Z,27.23
2018-06-02T07:36:03.193Z,27.60
2018-06-02T07:38:30.843Z,26.60
2018-06-02T07:40:59.184Z,26.67
2018-06-02T07:43:26.801Z,26.23
2018-06-02T07:45:54.379Z,25.20
2018-06-02T07:48:21.968Z,26.40
2018-06-02T07:50:49.539Z,24.77
2018-06-02T07:53:17.164Z,24.23
2018-06-02T07:55:44.777Z,24.23
2018-06-02T07:58:18.253Z,23.77
2018-06-02T08:00:45.817Z,24.33
2018-06-02T08:03:13.401Z,22.83
2018-06-02T08:05:41.794Z,21.70
2018-06-02T08:08:13.876Z,21.80
2018-06-02T08:10:41.460Z,20.77
2018-06-02T08:13:09.048Z,19.80
2018-06-02T08:15:36.671Z,19.47
2018-06-02T08:18:07.619Z,18.70
2018-06-02T08:20:35.218Z,17.77
2018-06-02T08:23:02.850Z,17.27
2018-06-02T08:25:30.441Z,17.27
2018-06-02T08:27:58.026Z,16.50
2018-06-02T08:30:25.602Z,16.93
2018-06-02T08:32:53.172Z,18.77
2018-06-02T08:35:20.760Z,16.53
2018-06-02T08:37:48.367Z,15.73
2018-06-02T08:40:16.825Z,15.93
2018-06-02T08:42:44.439Z,14.47
2018-06-02T08:45:12.068Z,16.40
2018-06-02T08:47:39.684Z,15.87
2018-06-02T08:50:07.296Z,16.07
2018-06-02T08:52:34.889Z,16.00
2018-06-02T08:55:02.486Z,15.87
2018-06-02T08:57:30.086Z,16.17
2018-06-02T08:59:58.469Z,16.27
2018-06-02T09:02:26.187Z,16.30
2018-06-02T09:04:53.788Z,15.80
2018-06-02T09:07:21.376Z,15.63
2018-06-02T09:09:48.981Z,17.37
2018-06-02T09:12:16.562Z,15.27
2018-06-02T09:14:44.165Z,15.70
2018-06-02T09:17:11.807Z,15.30
2018-06-02T09:19:39.404Z,14.07
2018-06-02T09:22:06.986Z,14.73
2018-06-02T09:24:34.593Z,15.33
2018-06-02T09:27:02.190Z,16.30
2018-06-02T09:29:29.771Z,16.37
2018-06-02T09:31:57.360Z,14.87
2018-06-02T09:34:25.125Z,16.23
2018-06-02T09:36:52.700Z,15.97
2018-06-02T09:39:21.202Z,18.67
2018-06-02T09:41:48.803Z,15.97
2018-06-02T09:44:16.387Z,15.43
2018-06-02T09:46:44.745Z,16.20
2018-06-02T09:49:12.317Z,17.30
2018-06-02T09:51:39.912Z,17.60
2018-06-02T09:54:07.482Z,17.50
2018-06-02T09:56:35.264Z,17.97
2018-06-02T09:59:02.956Z,17.20
2018-06-02T10:01:31.299Z,19.17
2018-06-02T10:03:59.946Z,17.80
2018-06-02T10:06:27.555Z,17.23
2018-06-02T10:08:55.127Z,18.33
2018-06-02T10:11:22.711Z,17.57
2018-06-02T10:13:50.301Z,18.73
2018-06-02T10:16:17.895Z,18.50
2018-06-02T10:18:45.471Z,17.80
2018-06-02T10:21:13.060Z,19.17
2018-06-02T10:23:40.656Z,20.87
2018-06-02T10:26:09.010Z,22.07
2018-06-02T10:28:36.602Z,21.20
2018-06-02T10:31:04.191Z,21.13
2018-06-02T10:33:33.090Z,19.33
2018-06-02T10:36:00.701Z,22.67
2018-06-02T10:38:29.551Z,21.87
2018-06-02T10:40:57.143Z,21.40
2018-06-02T10:43:25.518Z,21.77
2018-06-02T10:45:53.892Z,22.60
2018-06-02T10:48:21.488Z,22.33
2018-06-02T10:50:49.090Z,23.00
2018-06-02T10:53:16.685Z,22.60
2018-06-02T10:55:44.326Z,22.50
2018-06-02T10:58:11.935Z,21.90
2018-06-02T11:00:39.544Z,22.73
2018-06-02T11:03:07.132Z,22.03
2018-06-02T11:05:34.747Z,23.27
2018-06-02T11:08:06.049Z,21.90
2018-06-02T11:10:34.069Z,23.47
2018-06-02T11:13:01.671Z,22.47
2018-06-02T11:15:29.279Z,21.50
2018-06-02T11:17:56.872Z,21.23
2018-06-02T11:20:24.458Z,22.10
2018-06-02T11:22:52.075Z,21.67
2018-06-02T11:25:19.669Z,19.40
2018-06-02T11:27:47.277Z,20.87
2018-06-02T11:30:14.957Z,19.70
2018-06-02T11:32:42.563Z,20.80
2018-06-02T11:35:10.177Z,21.87
2018-06-02T11:37:37.802Z,20.57
2018-06-02T11:40:05.378Z,21.63
2018-06-02T11:42:33.738Z,21.60
2018-06-02T11:45:02.464Z,21.13
2018-06-02T11:47:30.067Z,21.40
2018-06-02T11:49:57.646Z,19.70
2018-06-02T11:52:26.037Z,19.13
2018-06-02T11:54:53.660Z,19.27
2018-06-02T11:57:21.261Z,19.53
2018-06-02T11:59:49.626Z,19.17
2018-06-02T12:02:18.009Z,19.77
2018-06-02T12:04:45.601Z,18.60
2018-06-02T12:07:13.198Z,19.90
2018-06-02T12:09:40.803Z,19.03
2018-06-02T12:12:08.397Z,19.20
2018-06-02T12:14:35.987Z,20.67
2018-06-02T12:17:03.642Z,21.67
2018-06-02T12:19:31.233Z,22.20
2018-06-02T12:21:58.846Z,24.00
2018-06-02T12:24:26.457Z,24.30
2018-06-02T12:26:54.050Z,23.20
2018-06-02T12:29:22.426Z,23.20
2018-06-02T12:31:49.999Z,21.73
2018-06-02T12:34:17.580Z,20.87
2018-06-02T12:36:45.478Z,21.47
2018-06-02T12:39:13.173Z,21.27
2018-06-02T12:41:40.783Z,22.77
2018-06-02T12:44:08.401Z,21.00
2018-06-02T12:46:36.016Z,22.63
2018-06-02T12:49:03.642Z,23.90
2018-06-02T12:51:31.234Z,22.23
2018-06-02T12:53:58.838Z,21.40
2018-06-02T12:56:27.289Z,22.77
2018-06-02T12:58:54.893Z,22.47
2018-06-02T13:01:22.502Z,22.10
2018-06-02T13:03:50.137Z,22.25
2018-06-02T13:06:17.771Z,21.42
2018-06-02T13:08:46.129Z,21.53
2018-06-02T13:11:13.731Z,21.65
2018-06-02T13:13:41.325Z,21.70
2018-06-02T13:16:08.994Z,22.62
2018-06-02T13:18:37.260Z,21.27
2018-06-02T13:21:04.851Z,21.12
2018-06-02T13:23:32.432Z,20.70
2018-06-02T13:26:00.789Z,21.23
2018-06-02T13:28:28.412Z,21.83
2018-06-02T13:30:55.987Z,21.08
2018-06-02T13:33:23.588Z,21.30
2018-06-02T13:35:51.181Z,22.35
2018-06-02T13:38:18.805Z,22.20
2018-06-02T13:40:46.424Z,23.47
2018-06-02T13:43:14.012Z,21.70
2018-06-02T13:45:43.300Z,22.35
2018-06-02T13:48:10.892Z,24.60
2018-06-02T13:50:38.485Z,22.57
2018-06-02T13:53:06.823Z,22.53
2018-06-02T13:55:34.424Z,22.92
2018-06-02T13:58:01.998Z,23.48
2018-06-02T14:00:29.583Z,23.15
2018-06-02T14:02:57.162Z,23.48
2018-06-02T14:05:24.743Z,22.62
2018-06-02T14:07:52.327Z,22.83
2018-06-02T14:10:19.899Z,22.95
2018-06-02T14:12:47.489Z,22.70
2018-06-02T14:15:15.080Z,27.60
2018-06-02T14:17:42.657Z,22.50
2018-06-02T14:20:11.016Z,23.17
2018-06-02T14:22:38.605Z,21.73
2018-06-02T14:25:06.196Z,20.23
2018-06-02T14:27:33.779Z,20.55
2018-06-02T14:30:01.368Z,20.42
2018-06-02T14:32:28.967Z,21.45
2018-06-02T14:34:56.545Z,20.73
2018-06-02T14:37:24.133Z,20.20
2018-06-02T14:39:51.707Z,21.83
2018-06-02T14:42:19.303Z,23.33
2018-06-02T14:44:46.887Z,23.00
2018-06-02T14:47:14.473Z,23.80
2018-06-02T14:49:42.076Z,22.40
2018-06-02T14:52:10.452Z,21.98
2018-06-02T14:54:38.817Z,24.52
2018-06-02T14:57:06.392Z,22.87
2018-06-02T14:59:33.993Z,23.58
2018-06-02T15:02:01.579Z,21.42
2018-06-02T15:04:29.177Z,21.27
2018-06-02T15:06:56.746Z,21.67
2018-06-02T15:09:25.100Z,21.45
2018-06-02T15:11:52.683Z,20.88
2018-06-02T15:14:20.342Z,22.92
2018-06-02T15:16:48.704Z,22.45
2018-06-02T15:19:16.318Z,23.95
2018-06-02T15:21:43.937Z,24.73
2018-06-02T15:24:11.530Z,23.52
2018-06-02T15:26:39.108Z,21.37
2018-06-02T15:29:06.729Z,22.45
2018-06-02T15:31:34.302Z,21.62
2018-06-02T15:34:01.888Z,21.83
2018-06-02T15:36:29.468Z,21.80
2018-06-02T15:38:57.065Z,21.02
2018-06-02T15:41:24.662Z,21.80
2018-06-02T15:43:52.253Z,20.83
2018-06-02T15:46:19.836Z,21.73
2018-06-02T15:48:47.486Z,22.67
2018-06-02T15:51:15.063Z,22.95
2018-06-02T15:53:42.667Z,23.02
2018-06-02T15:56:10.252Z,21.95
2018-06-02T15:58:37.836Z,22.25
2018-06-02T16:01:05.438Z,22.17
2018-06-02T16:03:33.806Z,21.77
2018-06-02T16:06:01.421Z,23.35
2018-06-02T16:08:29.047Z,25.73
2018-06-02T16:10:57.408Z,25.90
2018-06-02T16:13:24.981Z,26.42
2018-06-02T16:15:52.576Z,26.12
2018-06-02T16:18:21.324Z,26.60
2018-06-02T16:20:49.698Z,26.87
2018-06-02T16:23:18.065Z,26.25
2018-06-02T16:25:45.671Z,26.23
2018-06-02T16:28:13.260Z,25.42
2018-06-02T16:30:41.004Z,25.83
2018-06-02T16:33:08.611Z,24.45
2018-06-02T16:35:36.194Z,25.85
2018-06-02T16:38:03.806Z,26.10
2018-06-02T16:40:31.387Z,26.05
2018-06-02T16:42:58.994Z,27.25
2018-06-02T16:45:27.344Z,24.75
2018-06-02T16:47:54.940Z,25.33
2018-06-02T16:50:22.536Z,26.00
2018-06-02T16:52:50.125Z,26.90
2018-06-02T16:55:17.731Z,27.62
2018-06-02T16:57:45.329Z,26.27
2018-06-02T17:00:12.926Z,26.02
2018-06-02T17:02:40.545Z,26.75
2018-06-02T17:05:08.115Z,26.23
2018-06-02T17:07:35.737Z,25.73
2018-06-02T17:10:03.324Z,25.45
2018-06-02T17:12:30.911Z,24.65
2018-06-02T17:14:58.501Z,25.33
2018-06-02T17:17:26.089Z,25.37
2018-06-02T17:19:53.753Z,25.37
2018-06-02T17:22:21.325Z,25.83
2018-06-02T17:24:48.909Z,26.17
2018-06-02T17:27:17.386Z,26.37
2018-06-02T17:29:45.150Z,25.58
2018-06-02T17:32:13.069Z,24.75
2018-06-02T17:34:40.683Z,24.55
2018-06-02T17:37:08.401Z,22.50
2018-06-02T17:39:35.999Z,23.00
2018-06-02T17:42:03.574Z,22.65
2018-06-02T17:44:31.174Z,22.50
2018-06-02T17:46:58.749Z,22.13
2018-06-02T17:49:26.341Z,22.62
2018-06-02T17:51:53.934Z,21.85
2018-06-02T17:54:21.571Z,22.58
2018-06-02T17:56:49.150Z,21.37
2018-06-02T17:59:16.730Z,20.98
2018-06-02T18:01:45.212Z,19.35
2018-06-02T18:04:12.864Z,22.37
2018-06-02T18:06:40.460Z,21.48
2018-06-02T18:09:09.233Z,19.40
2018-06-02T18:11:37.593Z,21.08
2018-06-02T18:14:05.218Z,21.08
2018-06-02T18:16:32.794Z,19.65
2018-06-02T18:19:00.451Z,19.75
2018-06-02T18:21:28.034Z,19.10
2018-06-02T18:23:55.633Z,19.98
2018-06-02T18:26:23.995Z,20.42
2018-06-02T18:28:51.606Z,20.48
2018-06-02T18:31:19.201Z,19.80
2018-06-02T18:33:46.805Z,20.30
2018-06-02T18:36:14.429Z,18.67
2018-06-02T18:38:42.026Z,18.90
2018-06-02T18:41:09.678Z,20.37
2018-06-02T18:43:37.270Z,19.17
2018-06-02T18:46:04.888Z,16.92
2018-06-02T18:48:32.516Z,16.52
2018-06-02T18:51:00.121Z,18.95
2018-06-02T18:53:27.737Z,17.23
2018-06-02T18:55:55.344Z,15.25
2018-06-02T18:58:22.921Z,16.05
2018-06-02T19:00:50.516Z,14.77
2018-06-02T19:03:18.110Z,16.30
2018-06-02T19:05:45.716Z,16.35
2018-06-02T19:08:13.348Z,15.55
2018-06-02T19:10:40.974Z,14.07
2018-06-02T19:13:08.586Z,14.02
2018-06-02T19:15:36.198Z,15.95
2018-06-02T19:18:03.794Z,15.57
2018-06-02T19:20:31.395Z,15.65
2018-06-02T19:22:58.984Z,15.43
2018-06-02T19:25:26.577Z,15.07
2018-06-02T19:27:54.196Z,14.07
2018-06-02T19:30:21.798Z,15.38
2018-06-02T19:32:49.388Z,15.88
2018-06-02T19:35:17.038Z,15.32
2018-06-02T19:37:50.304Z,15.57
2018-06-02T19:40:17.936Z,16.33
2018-06-02T19:42:45.509Z,14.57
2018-06-02T19:45:13.932Z,15.55
2018-06-02T19:47:42.311Z,13.90
2018-06-02T19:50:10.682Z,14.82
2018-06-02T19:52:38.277Z,15.07
2018-06-02T19:55:05.887Z,14.57
2018-06-02T19:57:33.514Z,14.40
2018-06-02T20:00:01.138Z,15.45
2018-06-02T20:02:29.501Z,15.93
2018-06-02T20:04:57.090Z,16.23
2018-06-02T20:07:24.695Z,15.50
2018-06-02T20:09:52.284Z,14.43
2018-06-02T20:12:19.885Z,15.20
2018-06-02T20:14:47.477Z,15.55
2018-06-02T20:17:15.090Z,16.20
2018-06-02T20:19:42.728Z,15.95
2018-06-02T20:22:10.325Z,14.60
2018-06-02T20:24:37.929Z,16.33
2018-06-02T20:27:05.631Z,15.40
2018-06-02T20:29:33.229Z,14.13
2018-06-02T20:32:00.806Z,15.02
2018-06-02T20:34:28.387Z,14.82
2018-06-02T20:36:55.984Z,13.82
2018-06-02T20:39:23.713Z,12.95
2018-06-02T20:41:51.329Z,15.70
2018-06-02T20:44:18.899Z,16.23
2018-06-02T20:46:46.499Z,14.98
2018-06-02T20:49:14.089Z,16.40
2018-06-02T20:51:41.685Z,16.48
2018-06-02T20:54:09.291Z,16.50
2018-06-02T20:56:36.876Z,15.03
2018-06-02T20:59:05.667Z,15.50
2018-06-02T21:01:34.137Z,16.40
2018-06-02T21:04:01.728Z,17.30
2018-06-02T21:06:29.327Z,18.20
2018-06-02T21:08:56.956Z,18.23
2018-06-02T21:11:24.516Z,18.37
2018-06-02T21:13:52.105Z,19.10
2018-06-02T21:16:19.699Z,19.90
2018-06-02T21:18:47.329Z,18.47
2018-06-02T21:21:14.919Z,20.10
2018-06-02T21:23:42.497Z,18.53
2018-06-02T21:26:10.080Z,19.90
2018-06-02T21:28:39.753Z,19.23
2018-06-02T21:31:07.366Z,17.33
2018-06-02T21:33:34.961Z,15.47
2018-06-02T21:36:02.561Z,17.47
2018-06-02T21:38:30.168Z,19.00
2018-06-02T21:40:58.528Z,19.30
2018-06-02T21:43:26.101Z,17.17
2018-06-02T21:45:53.696Z,19.80
2018-06-02T21:48:21.283Z,16.83
2018-06-02T21:50:49.651Z,17.20
2018-06-02T21:53:17.226Z,17.57
2018-06-02T21:55:44.807Z,20.47
2018-06-02T21:58:16.001Z,18.17
2018-06-02T22:00:43.598Z,18.07
2018-06-02T22:03:11.192Z,18.17
2018-06-02T22:05:38.771Z,18.97
2018-06-02T22:08:06.341Z,16.13
2018-06-02T22:10:33.943Z,17.23
2018-06-02T22:13:02.297Z,17.87
2018-06-02T22:15:29.870Z,18.47
2018-06-02T22:17:57.470Z,18.90
2018-06-02T22:20:25.178Z,17.20
2018-06-02T22:22:52.832Z,18.50
2018-06-02T22:25:20.417Z,18.27
2018-06-02T22:27:52.555Z,17.30
2018-06-02T22:30:20.155Z,16.00
2018-06-02T22:32:48.516Z,15.93
2018-06-02T22:35:16.134Z,15.10
2018-06-02T22:37:43.725Z,15.23
2018-06-02T22:40:11.469Z,17.47
2018-06-02T22:42:39.052Z,16.00
2018-06-02T22:45:06.681Z,15.43
2018-06-02T22:47:34.371Z,17.30
2018-06-02T22:50:02.065Z,16.83
2018-06-02T22:52:29.607Z,16.23
2018-06-02T22:54:57.221Z,15.57
2018-06-02T22:57:28.202Z,17.47
2018-06-02T22:59:55.845Z,16.80
2018-06-02T23:02:23.462Z,16.03
2018-06-02T23:04:51.812Z,17.93
2018-06-02T23:07:19.421Z,17.90
2018-06-02T23:09:47.017Z,18.13
2018-06-02T23:12:14.604Z,18.43
2018-06-02T23:14:42.202Z,18.90
2018-06-02T23:17:09.803Z,17.73
2018-06-02T23:19:37.395Z,18.63
2018-06-02T23:22:04.985Z,17.27
2018-06-02T23:24:33.371Z,16.67
2018-06-02T23:27:01.726Z,18.70
2018-06-02T23:29:29.332Z,18.60
2018-06-02T23:31:56.910Z,18.57
2018-06-02T23:34:24.476Z,17.10
2018-06-02T23:36:52.074Z,17.70
2018-06-02T23:39:19.645Z,14.30
2018-06-02T23:41:48.034Z,15.80
2018-06-02T23:44:16.409Z,12.73
2018-06-02T23:46:43.985Z,14.37
2018-06-02T23:49:13.750Z,13.93
2018-06-02T23:51:41.344Z,16.83
2018-06-02T23:54:08.933Z,16.07
2018-06-02T23:56:36.563Z,16.93
2018-06-02T23:59:04.175Z,16.47
